sensor_id;sensor_type;location;lat;lon;timestamp;P1;durP1;ratioP1;P2;durP2;ratioP2
22628;SDS011;11481;53.694;9.910;2024-01-10T00:00:14;25.33;;;11.50;;
22628;SDS011;11481;53.694;9.910;2024-01-10T00:02:41;24.90;;;10.32;;
22628;SDS011;11481;53.694;9.910;2024-01-10T00:05:09;20.83;;;10.55;;
22628;SDS011;11481;53.694;9.910;2024-01-10T00:07:35;20.55;;;9.93;;
22628;SDS011;11481;53.694;9.910;2024-01-10T00:10:03;20.83;;;10.70;;
22628;SDS011;11481;53.694;9.910;2024-01-10T00:12:30;24.48;;;10.68;;
22628;SDS011;11481;53.694;9.910;2024-01-10T00:15:05;28.45;;;10.68;;
22628;SDS011;11481;53.694;9.910;2024-01-10T00:17:32;20.10;;;9.73;;
22628;SDS011;11481;53.694;9.910;2024-01-10T00:19:59;19.88;;;9.63;;
22628;SDS011;11481;53.694;9.910;2024-01-10T00:22:26;23.08;;;9.68;;
22628;SDS011;11481;53.694;9.910;2024-01-10T00:24:52;21.70;;;9.95;;
22628;SDS011;11481;53.694;9.910;2024-01-10T00:27:19;18.08;;;9.27;;
22628;SDS011;11481;53.694;9.910;2024-01-10T00:29:46;26.70;;;9.80;;
22628;SDS011;11481;53.694;9.910;2024-01-10T00:32:13;21.48;;;10.60;;
22628;SDS011;11481;53.694;9.910;2024-01-10T00:34:40;20.85;;;9.70;;
22628;SDS011;11481;53.694;9.910;2024-01-10T00:37:07;23.00;;;9.80;;
22628;SDS011;11481;53.694;9.910;2024-01-10T00:39:34;20.65;;;10.20;;
22628;SDS011;11481;53.694;9.910;2024-01-10T00:42:01;24.98;;;10.63;;
22628;SDS011;11481;53.694;9.910;2024-01-10T00:44:27;28.10;;;10.50;;
22628;SDS011;11481;53.694;9.910;2024-01-10T00:46:54;24.65;;;10.23;;
22628;SDS011;11481;53.694;9.910;2024-01-10T00:49:21;23.88;;;10.20;;
22628;SDS011;11481;53.694;9.910;2024-01-10T00:51:48;20.88;;;10.20;;
22628;SDS011;11481;53.694;9.910;2024-01-10T00:54:15;21.75;;;10.27;;
22628;SDS011;11481;53.694;9.910;2024-01-10T00:56:42;23.42;;;10.77;;
22628;SDS011;11481;53.694;9.910;2024-01-10T00:59:09;23.90;;;11.27;;
22628;SDS011;11481;53.694;9.910;2024-01-10T01:01:36;24.95;;;10.60;;
22628;SDS011;11481;53.694;9.910;2024-01-10T01:04:03;23.35;;;11.60;;
22628;SDS011;11481;53.694;9.910;2024-01-10T01:06:30;23.45;;;10.55;;
22628;SDS011;11481;53.694;9.910;2024-01-10T01:08:57;23.02;;;10.45;;
22628;SDS011;11481;53.694;9.910;2024-01-10T01:11:25;22.40;;;9.70;;
22628;SDS011;11481;53.694;9.910;2024-01-10T01:13:52;21.65;;;10.57;;
22628;SDS011;11481;53.694;9.910;2024-01-10T01:16:19;23.05;;;11.00;;
22628;SDS011;11481;53.694;9.910;2024-01-10T01:18:45;21.77;;;10.00;;
22628;SDS011;11481;53.694;9.910;2024-01-10T01:21:12;19.27;;;10.40;;
22628;SDS011;11481;53.694;9.910;2024-01-10T01:23:39;25.40;;;10.10;;
22628;SDS011;11481;53.694;9.910;2024-01-10T01:26:08;25.08;;;11.75;;
22628;SDS011;11481;53.694;9.910;2024-01-10T01:28:35;19.77;;;9.77;;
22628;SDS011;11481;53.694;9.910;2024-01-10T01:31:02;26.00;;;11.25;;
22628;SDS011;11481;53.694;9.910;2024-01-10T01:33:29;22.45;;;10.82;;
22628;SDS011;11481;53.694;9.910;2024-01-10T01:35:56;30.05;;;11.93;;
22628;SDS011;11481;53.694;9.910;2024-01-10T01:38:22;24.40;;;11.52;;
22628;SDS011;11481;53.694;9.910;2024-01-10T01:40:49;24.40;;;11.65;;
22628;SDS011;11481;53.694;9.910;2024-01-10T01:43:24;26.13;;;11.32;;
22628;SDS011;11481;53.694;9.910;2024-01-10T01:45:52;22.58;;;11.20;;
22628;SDS011;11481;53.694;9.910;2024-01-10T01:48:20;22.20;;;10.32;;
22628;SDS011;11481;53.694;9.910;2024-01-10T01:50:51;26.08;;;11.85;;
22628;SDS011;11481;53.694;9.910;2024-01-10T01:53:20;24.77;;;11.38;;
22628;SDS011;11481;53.694;9.910;2024-01-10T01:55:48;26.33;;;12.20;;
22628;SDS011;11481;53.694;9.910;2024-01-10T01:58:15;31.63;;;12.70;;
22628;SDS011;11481;53.694;9.910;2024-01-10T02:00:43;25.98;;;12.52;;
22628;SDS011;11481;53.694;9.910;2024-01-10T02:03:10;28.05;;;12.18;;
22628;SDS011;11481;53.694;9.910;2024-01-10T02:05:37;26.73;;;12.57;;
22628;SDS011;11481;53.694;9.910;2024-01-10T02:08:05;29.30;;;12.68;;
22628;SDS011;11481;53.694;9.910;2024-01-10T02:10:32;27.33;;;12.52;;
22628;SDS011;11481;53.694;9.910;2024-01-10T02:12:59;27.67;;;12.82;;
22628;SDS011;11481;53.694;9.910;2024-01-10T02:15:25;30.52;;;12.88;;
22628;SDS011;11481;53.694;9.910;2024-01-10T02:17:52;31.63;;;13.82;;
22628;SDS011;11481;53.694;9.910;2024-01-10T02:20:19;35.95;;;13.07;;
22628;SDS011;11481;53.694;9.910;2024-01-10T02:22:49;28.95;;;12.43;;
22628;SDS011;11481;53.694;9.910;2024-01-10T02:25:17;32.25;;;13.40;;
22628;SDS011;11481;53.694;9.910;2024-01-10T02:27:44;35.60;;;14.90;;
22628;SDS011;11481;53.694;9.910;2024-01-10T02:30:10;33.00;;;14.30;;
22628;SDS011;11481;53.694;9.910;2024-01-10T02:32:38;33.67;;;13.75;;
22628;SDS011;11481;53.694;9.910;2024-01-10T02:35:05;32.53;;;13.80;;
22628;SDS011;11481;53.694;9.910;2024-01-10T02:37:32;37.13;;;13.52;;
22628;SDS011;11481;53.694;9.910;2024-01-10T02:40:00;29.85;;;13.98;;
22628;SDS011;11481;53.694;9.910;2024-01-10T02:42:27;27.38;;;12.45;;
22628;SDS011;11481;53.694;9.910;2024-01-10T02:44:54;28.63;;;12.73;;
22628;SDS011;11481;53.694;9.910;2024-01-10T02:47:21;28.73;;;13.85;;
22628;SDS011;11481;53.694;9.910;2024-01-10T02:49:48;30.00;;;13.88;;
22628;SDS011;11481;53.694;9.910;2024-01-10T02:52:15;27.33;;;12.57;;
22628;SDS011;11481;53.694;9.910;2024-01-10T02:54:42;28.38;;;12.63;;
22628;SDS011;11481;53.694;9.910;2024-01-10T02:57:09;28.17;;;13.25;;
22628;SDS011;11481;53.694;9.910;2024-01-10T02:59:35;28.95;;;12.80;;
22628;SDS011;11481;53.694;9.910;2024-01-10T03:02:02;26.52;;;12.02;;
22628;SDS011;11481;53.694;9.910;2024-01-10T03:04:29;29.15;;;13.73;;
22628;SDS011;11481;53.694;9.910;2024-01-10T03:06:56;29.85;;;13.80;;
22628;SDS011;11481;53.694;9.910;2024-01-10T03:09:23;28.95;;;13.50;;
22628;SDS011;11481;53.694;9.910;2024-01-10T03:11:50;31.50;;;13.27;;
22628;SDS011;11481;53.694;9.910;2024-01-10T03:14:17;26.55;;;11.50;;
22628;SDS011;11481;53.694;9.910;2024-01-10T03:16:44;25.05;;;12.55;;
22628;SDS011;11481;53.694;9.910;2024-01-10T03:19:12;28.88;;;12.00;;
22628;SDS011;11481;53.694;9.910;2024-01-10T03:21:39;25.63;;;12.73;;
22628;SDS011;11481;53.694;9.910;2024-01-10T03:24:06;28.48;;;13.20;;
22628;SDS011;11481;53.694;9.910;2024-01-10T03:26:33;31.90;;;12.68;;
22628;SDS011;11481;53.694;9.910;2024-01-10T03:29:00;26.92;;;11.88;;
22628;SDS011;11481;53.694;9.910;2024-01-10T03:31:27;23.95;;;10.77;;
22628;SDS011;11481;53.694;9.910;2024-01-10T03:33:56;21.13;;;11.32;;
22628;SDS011;11481;53.694;9.910;2024-01-10T03:36:24;21.05;;;10.32;;
22628;SDS011;11481;53.694;9.910;2024-01-10T03:38:51;20.38;;;10.30;;
22628;SDS011;11481;53.694;9.910;2024-01-10T03:41:19;20.02;;;9.02;;
22628;SDS011;11481;53.694;9.910;2024-01-10T03:43:46;21.13;;;9.15;;
22628;SDS011;11481;53.694;9.910;2024-01-10T03:46:13;20.45;;;8.50;;
22628;SDS011;11481;53.694;9.910;2024-01-10T03:48:41;17.48;;;8.77;;
22628;SDS011;11481;53.694;9.910;2024-01-10T03:51:15;17.25;;;8.52;;
22628;SDS011;11481;53.694;9.910;2024-01-10T03:53:47;22.08;;;8.90;;
22628;SDS011;11481;53.694;9.910;2024-01-10T03:56:15;19.13;;;8.52;;
22628;SDS011;11481;53.694;9.910;2024-01-10T03:58:42;19.85;;;8.93;;
22628;SDS011;11481;53.694;9.910;2024-01-10T04:01:09;22.17;;;8.60;;
22628;SDS011;11481;53.694;9.910;2024-01-10T04:03:36;16.65;;;9.23;;
22628;SDS011;11481;53.694;9.910;2024-01-10T04:06:04;16.17;;;8.25;;
22628;SDS011;11481;53.694;9.910;2024-01-10T04:08:31;17.88;;;8.50;;
22628;SDS011;11481;53.694;9.910;2024-01-10T04:10:59;18.95;;;9.52;;
22628;SDS011;11481;53.694;9.910;2024-01-10T04:13:26;18.88;;;9.43;;
22628;SDS011;11481;53.694;9.910;2024-01-10T04:15:52;22.60;;;9.27;;
22628;SDS011;11481;53.694;9.910;2024-01-10T04:18:19;18.42;;;7.95;;
22628;SDS011;11481;53.694;9.910;2024-01-10T04:20:47;19.08;;;8.30;;
22628;SDS011;11481;53.694;9.910;2024-01-10T04:23:15;18.52;;;8.63;;
22628;SDS011;11481;53.694;9.910;2024-01-10T04:25:42;16.55;;;7.60;;
22628;SDS011;11481;53.694;9.910;2024-01-10T04:28:09;14.07;;;7.53;;
22628;SDS011;11481;53.694;9.910;2024-01-10T04:30:35;16.75;;;8.13;;
22628;SDS011;11481;53.694;9.910;2024-01-10T04:33:02;17.83;;;7.85;;
22628;SDS011;11481;53.694;9.910;2024-01-10T04:35:29;16.85;;;8.27;;
22628;SDS011;11481;53.694;9.910;2024-01-10T04:37:56;14.25;;;7.68;;
22628;SDS011;11481;53.694;9.910;2024-01-10T04:40:23;18.15;;;7.70;;
22628;SDS011;11481;53.694;9.910;2024-01-10T04:42:50;19.88;;;8.93;;
22628;SDS011;11481;53.694;9.910;2024-01-10T04:45:17;18.08;;;7.38;;
22628;SDS011;11481;53.694;9.910;2024-01-10T04:47:44;18.65;;;7.05;;
22628;SDS011;11481;53.694;9.910;2024-01-10T04:50:11;16.40;;;8.30;;
22628;SDS011;11481;53.694;9.910;2024-01-10T04:52:40;17.83;;;7.57;;
22628;SDS011;11481;53.694;9.910;2024-01-10T04:55:07;18.38;;;7.53;;
22628;SDS011;11481;53.694;9.910;2024-01-10T04:57:35;19.35;;;7.65;;
22628;SDS011;11481;53.694;9.910;2024-01-10T05:00:02;13.73;;;6.82;;
22628;SDS011;11481;53.694;9.910;2024-01-10T05:02:30;14.77;;;7.32;;
22628;SDS011;11481;53.694;9.910;2024-01-10T05:04:58;15.40;;;6.68;;
22628;SDS011;11481;53.694;9.910;2024-01-10T05:07:25;15.65;;;6.85;;
22628;SDS011;11481;53.694;9.910;2024-01-10T05:09:53;13.57;;;6.47;;
22628;SDS011;11481;53.694;9.910;2024-01-10T05:12:20;12.98;;;5.78;;
22628;SDS011;11481;53.694;9.910;2024-01-10T05:14:47;14.25;;;7.03;;
22628;SDS011;11481;53.694;9.910;2024-01-10T05:17:14;15.45;;;7.35;;
22628;SDS011;11481;53.694;9.910;2024-01-10T05:19:41;17.17;;;7.90;;
22628;SDS011;11481;53.694;9.910;2024-01-10T05:22:08;24.33;;;8.40;;
22628;SDS011;11481;53.694;9.910;2024-01-10T05:24:35;17.70;;;6.88;;
22628;SDS011;11481;53.694;9.910;2024-01-10T05:27:02;16.98;;;7.68;;
22628;SDS011;11481;53.694;9.910;2024-01-10T05:29:29;13.93;;;6.57;;
22628;SDS011;11481;53.694;9.910;2024-01-10T05:31:57;16.40;;;6.57;;
22628;SDS011;11481;53.694;9.910;2024-01-10T05:34:24;11.15;;;5.65;;
22628;SDS011;11481;53.694;9.910;2024-01-10T05:36:51;14.05;;;6.95;;
22628;SDS011;11481;53.694;9.910;2024-01-10T05:39:18;15.50;;;6.53;;
22628;SDS011;11481;53.694;9.910;2024-01-10T05:41:47;22.65;;;7.70;;
22628;SDS011;11481;53.694;9.910;2024-01-10T05:44:13;18.83;;;8.15;;
22628;SDS011;11481;53.694;9.910;2024-01-10T05:46:41;15.55;;;8.20;;
22628;SDS011;11481;53.694;9.910;2024-01-10T05:49:09;20.98;;;8.40;;
22628;SDS011;11481;53.694;9.910;2024-01-10T05:51:37;16.58;;;7.93;;
22628;SDS011;11481;53.694;9.910;2024-01-10T05:54:04;19.05;;;8.63;;
22628;SDS011;11481;53.694;9.910;2024-01-10T05:56:30;17.15;;;7.85;;
22628;SDS011;11481;53.694;9.910;2024-01-10T05:58:57;16.30;;;7.47;;
22628;SDS011;11481;53.694;9.910;2024-01-10T06:01:24;17.88;;;8.02;;
22628;SDS011;11481;53.694;9.910;2024-01-10T06:03:52;16.30;;;7.82;;
22628;SDS011;11481;53.694;9.910;2024-01-10T06:06:19;16.77;;;8.02;;
22628;SDS011;11481;53.694;9.910;2024-01-10T06:08:46;22.33;;;8.82;;
22628;SDS011;11481;53.694;9.910;2024-01-10T06:11:13;18.55;;;8.30;;
22628;SDS011;11481;53.694;9.910;2024-01-10T06:13:40;20.10;;;8.65;;
22628;SDS011;11481;53.694;9.910;2024-01-10T06:16:19;19.17;;;8.70;;
22628;SDS011;11481;53.694;9.910;2024-01-10T06:18:46;20.25;;;9.10;;
22628;SDS011;11481;53.694;9.910;2024-01-10T06:21:16;20.67;;;9.43;;
22628;SDS011;11481;53.694;9.910;2024-01-10T06:23:43;24.83;;;10.95;;
22628;SDS011;11481;53.694;9.910;2024-01-10T06:26:10;19.13;;;9.95;;
22628;SDS011;11481;53.694;9.910;2024-01-10T06:28:37;20.90;;;9.07;;
22628;SDS011;11481;53.694;9.910;2024-01-10T06:31:05;24.05;;;9.98;;
22628;SDS011;11481;53.694;9.910;2024-01-10T06:33:37;17.38;;;8.95;;
22628;SDS011;11481;53.694;9.910;2024-01-10T06:36:04;20.65;;;10.02;;
22628;SDS011;11481;53.694;9.910;2024-01-10T06:38:31;19.60;;;9.00;;
22628;SDS011;11481;53.694;9.910;2024-01-10T06:40:58;19.17;;;9.43;;
22628;SDS011;11481;53.694;9.910;2024-01-10T06:43:25;18.50;;;9.68;;
22628;SDS011;11481;53.694;9.910;2024-01-10T06:45:52;19.10;;;10.02;;
22628;SDS011;11481;53.694;9.910;2024-01-10T06:48:19;21.65;;;9.25;;
22628;SDS011;11481;53.694;9.910;2024-01-10T06:50:46;18.02;;;9.18;;
22628;SDS011;11481;53.694;9.910;2024-01-10T06:53:12;17.45;;;9.73;;
22628;SDS011;11481;53.694;9.910;2024-01-10T06:55:40;21.75;;;9.68;;
22628;SDS011;11481;53.694;9.910;2024-01-10T06:58:07;20.15;;;9.30;;
22628;SDS011;11481;53.694;9.910;2024-01-10T07:00:34;16.75;;;9.98;;
22628;SDS011;11481;53.694;9.910;2024-01-10T07:03:01;21.90;;;9.75;;
22628;SDS011;11481;53.694;9.910;2024-01-10T07:05:28;19.77;;;10.07;;
22628;SDS011;11481;53.694;9.910;2024-01-10T07:07:58;21.20;;;9.63;;
22628;SDS011;11481;53.694;9.910;2024-01-10T07:10:25;17.70;;;10.07;;
22628;SDS011;11481;53.694;9.910;2024-01-10T07:12:54;20.13;;;9.77;;
22628;SDS011;11481;53.694;9.910;2024-01-10T07:15:21;18.50;;;10.23;;
22628;SDS011;11481;53.694;9.910;2024-01-10T07:17:48;19.73;;;10.32;;
22628;SDS011;11481;53.694;9.910;2024-01-10T07:20:15;23.67;;;10.75;;
22628;SDS011;11481;53.694;9.910;2024-01-10T07:22:43;17.77;;;9.43;;
22628;SDS011;11481;53.694;9.910;2024-01-10T07:25:10;20.17;;;9.63;;
22628;SDS011;11481;53.694;9.910;2024-01-10T07:27:40;18.35;;;9.52;;
22628;SDS011;11481;53.694;9.910;2024-01-10T07:30:08;19.33;;;8.60;;
22628;SDS011;11481;53.694;9.910;2024-01-10T07:32:42;19.60;;;9.07;;
22628;SDS011;11481;53.694;9.910;2024-01-10T07:35:10;17.20;;;9.18;;
22628;SDS011;11481;53.694;9.910;2024-01-10T07:37:38;18.45;;;9.20;;
22628;SDS011;11481;53.694;9.910;2024-01-10T07:40:07;17.92;;;8.13;;
22628;SDS011;11481;53.694;9.910;2024-01-10T07:42:37;16.30;;;8.57;;
22628;SDS011;11481;53.694;9.910;2024-01-10T07:45:06;15.43;;;7.00;;
22628;SDS011;11481;53.694;9.910;2024-01-10T07:47:34;12.90;;;7.32;;
22628;SDS011;11481;53.694;9.910;2024-01-10T07:50:08;16.10;;;7.88;;
22628;SDS011;11481;53.694;9.910;2024-01-10T07:52:38;18.90;;;7.65;;
22628;SDS011;11481;53.694;9.910;2024-01-10T07:55:05;14.50;;;7.32;;
22628;SDS011;11481;53.694;9.910;2024-01-10T07:57:33;16.38;;;8.07;;
22628;SDS011;11481;53.694;9.910;2024-01-10T08:00:06;17.85;;;8.45;;
22628;SDS011;11481;53.694;9.910;2024-01-10T08:02:39;14.50;;;7.70;;
22628;SDS011;11481;53.694;9.910;2024-01-10T08:05:06;17.38;;;8.43;;
22628;SDS011;11481;53.694;9.910;2024-01-10T08:07:39;14.13;;;7.68;;
22628;SDS011;11481;53.694;9.910;2024-01-10T08:10:07;17.73;;;8.55;;
22628;SDS011;11481;53.694;9.910;2024-01-10T08:12:36;16.52;;;7.97;;
22628;SDS011;11481;53.694;9.910;2024-01-10T08:15:08;13.85;;;7.70;;
22628;SDS011;11481;53.694;9.910;2024-01-10T08:17:34;16.00;;;7.65;;
22628;SDS011;11481;53.694;9.910;2024-01-10T08:20:05;14.98;;;7.90;;
22628;SDS011;11481;53.694;9.910;2024-01-10T08:22:33;16.42;;;8.57;;
22628;SDS011;11481;53.694;9.910;2024-01-10T08:25:00;14.10;;;8.45;;
22628;SDS011;11481;53.694;9.910;2024-01-10T08:27:27;17.83;;;8.10;;
22628;SDS011;11481;53.694;9.910;2024-01-10T08:29:54;15.60;;;7.82;;
22628;SDS011;11481;53.694;9.910;2024-01-10T08:32:21;13.65;;;7.57;;
22628;SDS011;11481;53.694;9.910;2024-01-10T08:35:01;17.83;;;8.30;;
22628;SDS011;11481;53.694;9.910;2024-01-10T08:37:31;13.30;;;7.82;;
22628;SDS011;11481;53.694;9.910;2024-01-10T08:39:58;12.13;;;7.57;;
22628;SDS011;11481;53.694;9.910;2024-01-10T08:42:26;14.68;;;8.07;;
22628;SDS011;11481;53.694;9.910;2024-01-10T08:44:53;13.45;;;7.40;;
22628;SDS011;11481;53.694;9.910;2024-01-10T08:47:23;12.43;;;7.20;;
22628;SDS011;11481;53.694;9.910;2024-01-10T08:49:50;15.52;;;7.53;;
22628;SDS011;11481;53.694;9.910;2024-01-10T08:52:17;13.43;;;6.75;;
22628;SDS011;11481;53.694;9.910;2024-01-10T08:54:45;15.15;;;7.47;;
22628;SDS011;11481;53.694;9.910;2024-01-10T08:57:13;15.27;;;8.23;;
22628;SDS011;11481;53.694;9.910;2024-01-10T08:59:43;14.20;;;7.20;;
22628;SDS011;11481;53.694;9.910;2024-01-10T09:02:10;14.52;;;8.20;;
22628;SDS011;11481;53.694;9.910;2024-01-10T09:04:37;16.30;;;8.15;;
22628;SDS011;11481;53.694;9.910;2024-01-10T09:07:06;14.48;;;8.13;;
22628;SDS011;11481;53.694;9.910;2024-01-10T09:09:35;13.35;;;7.00;;
22628;SDS011;11481;53.694;9.910;2024-01-10T09:12:02;13.75;;;7.25;;
22628;SDS011;11481;53.694;9.910;2024-01-10T09:14:29;11.88;;;7.30;;
22628;SDS011;11481;53.694;9.910;2024-01-10T09:16:56;14.85;;;7.13;;
22628;SDS011;11481;53.694;9.910;2024-01-10T09:19:25;10.32;;;6.32;;
22628;SDS011;11481;53.694;9.910;2024-01-10T09:21:51;13.02;;;7.13;;
22628;SDS011;11481;53.694;9.910;2024-01-10T09:24:18;17.25;;;7.97;;
22628;SDS011;11481;53.694;9.910;2024-01-10T09:26:54;12.30;;;6.82;;
22628;SDS011;11481;53.694;9.910;2024-01-10T09:29:23;12.43;;;7.18;;
22628;SDS011;11481;53.694;9.910;2024-01-10T09:31:53;15.23;;;8.13;;
22628;SDS011;11481;53.694;9.910;2024-01-10T09:34:23;12.55;;;7.15;;
22628;SDS011;11481;53.694;9.910;2024-01-10T09:36:50;12.55;;;7.22;;
22628;SDS011;11481;53.694;9.910;2024-01-10T09:39:18;16.83;;;8.15;;
22628;SDS011;11481;53.694;9.910;2024-01-10T09:41:47;16.23;;;8.15;;
22628;SDS011;11481;53.694;9.910;2024-01-10T09:44:15;13.27;;;7.97;;
22628;SDS011;11481;53.694;9.910;2024-01-10T09:46:46;16.13;;;9.52;;
22628;SDS011;11481;53.694;9.910;2024-01-10T09:49:15;12.43;;;7.50;;
22628;SDS011;11481;53.694;9.910;2024-01-10T09:59:25;15.43;;;7.53;;
22628;SDS011;11481;53.694;9.910;2024-01-10T10:01:53;14.02;;;6.93;;
22628;SDS011;11481;53.694;9.910;2024-01-10T10:04:22;12.25;;;7.47;;
22628;SDS011;11481;53.694;9.910;2024-01-10T10:06:59;14.43;;;7.22;;
22628;SDS011;11481;53.694;9.910;2024-01-10T10:09:28;18.33;;;8.48;;
22628;SDS011;11481;53.694;9.910;2024-01-10T10:11:58;17.35;;;8.25;;
22628;SDS011;11481;53.694;9.910;2024-01-10T10:14:28;12.57;;;7.22;;
22628;SDS011;11481;53.694;9.910;2024-01-10T10:16:56;13.80;;;7.35;;
22628;SDS011;11481;53.694;9.910;2024-01-10T10:19:42;13.13;;;7.57;;
22628;SDS011;11481;53.694;9.910;2024-01-10T10:22:11;15.18;;;8.35;;
22628;SDS011;11481;53.694;9.910;2024-01-10T10:24:38;11.80;;;7.30;;
22628;SDS011;11481;53.694;9.910;2024-01-10T10:27:10;15.00;;;7.70;;
22628;SDS011;11481;53.694;9.910;2024-01-10T10:29:39;14.63;;;7.15;;
22628;SDS011;11481;53.694;9.910;2024-01-10T10:32:10;14.77;;;7.50;;
22628;SDS011;11481;53.694;9.910;2024-01-10T10:34:37;12.98;;;7.93;;
22628;SDS011;11481;53.694;9.910;2024-01-10T10:37:04;14.75;;;7.57;;
22628;SDS011;11481;53.694;9.910;2024-01-10T10:39:31;13.77;;;7.72;;
22628;SDS011;11481;53.694;9.910;2024-01-10T10:41:58;13.93;;;8.38;;
22628;SDS011;11481;53.694;9.910;2024-01-10T10:44:27;17.98;;;7.35;;
22628;SDS011;11481;53.694;9.910;2024-01-10T10:46:55;13.70;;;7.90;;
22628;SDS011;11481;53.694;9.910;2024-01-10T10:49:39;14.55;;;7.88;;
22628;SDS011;11481;53.694;9.910;2024-01-10T10:52:17;14.35;;;7.80;;
22628;SDS011;11481;53.694;9.910;2024-01-10T11:01:47;20.63;;;9.00;;
22628;SDS011;11481;53.694;9.910;2024-01-10T11:04:15;18.45;;;8.32;;
22628;SDS011;11481;53.694;9.910;2024-01-10T11:06:43;14.60;;;7.38;;
22628;SDS011;11481;53.694;9.910;2024-01-10T11:09:10;12.43;;;7.10;;
22628;SDS011;11481;53.694;9.910;2024-01-10T11:11:47;11.98;;;6.78;;
22628;SDS011;11481;53.694;9.910;2024-01-10T11:14:31;14.20;;;7.03;;
22628;SDS011;11481;53.694;9.910;2024-01-10T11:17:43;12.20;;;7.32;;
22628;SDS011;11481;53.694;9.910;2024-01-10T11:25:44;15.90;;;7.70;;
22628;SDS011;11481;53.694;9.910;2024-01-10T11:28:12;17.83;;;7.78;;
22628;SDS011;11481;53.694;9.910;2024-01-10T11:30:49;13.20;;;7.07;;
22628;SDS011;11481;53.694;9.910;2024-01-10T11:33:23;12.90;;;7.10;;
22628;SDS011;11481;53.694;9.910;2024-01-10T11:36:10;15.52;;;7.53;;
22628;SDS011;11481;53.694;9.910;2024-01-10T11:38:49;14.27;;;7.95;;
22628;SDS011;11481;53.694;9.910;2024-01-10T11:46:47;16.00;;;7.30;;
22628;SDS011;11481;53.694;9.910;2024-01-10T11:49:19;11.50;;;6.38;;
22628;SDS011;11481;53.694;9.910;2024-01-10T11:51:47;10.55;;;6.22;;
22628;SDS011;11481;53.694;9.910;2024-01-10T11:57:10;17.60;;;8.35;;
22628;SDS011;11481;53.694;9.910;2024-01-10T11:59:40;11.05;;;5.93;;
22628;SDS011;11481;53.694;9.910;2024-01-10T12:02:09;10.05;;;5.68;;
22628;SDS011;11481;53.694;9.910;2024-01-10T12:04:37;12.93;;;6.53;;
22628;SDS011;11481;53.694;9.910;2024-01-10T12:07:14;11.98;;;6.22;;
22628;SDS011;11481;53.694;9.910;2024-01-10T12:09:46;13.48;;;6.90;;
22628;SDS011;11481;53.694;9.910;2024-01-10T12:12:13;16.52;;;6.93;;
22628;SDS011;11481;53.694;9.910;2024-01-10T12:14:42;13.05;;;6.20;;
22628;SDS011;11481;53.694;9.910;2024-01-10T12:17:13;11.98;;;5.80;;
22628;SDS011;11481;53.694;9.910;2024-01-10T12:19:40;12.65;;;6.25;;
22628;SDS011;11481;53.694;9.910;2024-01-10T12:22:13;11.48;;;6.43;;
22628;SDS011;11481;53.694;9.910;2024-01-10T12:24:42;12.40;;;6.35;;
22628;SDS011;11481;53.694;9.910;2024-01-10T12:27:11;13.73;;;6.60;;
22628;SDS011;11481;53.694;9.910;2024-01-10T12:29:38;13.00;;;6.85;;
22628;SDS011;11481;53.694;9.910;2024-01-10T12:32:08;9.48;;;5.90;;
22628;SDS011;11481;53.694;9.910;2024-01-10T12:34:39;13.00;;;6.25;;
22628;SDS011;11481;53.694;9.910;2024-01-10T12:37:10;15.40;;;7.07;;
22628;SDS011;11481;53.694;9.910;2024-01-10T12:39:38;12.13;;;6.72;;
22628;SDS011;11481;53.694;9.910;2024-01-10T12:42:05;11.05;;;6.68;;
22628;SDS011;11481;53.694;9.910;2024-01-10T12:44:32;12.73;;;6.15;;
22628;SDS011;11481;53.694;9.910;2024-01-10T12:46:59;12.13;;;6.63;;
22628;SDS011;11481;53.694;9.910;2024-01-10T12:49:26;10.95;;;6.30;;
22628;SDS011;11481;53.694;9.910;2024-01-10T12:51:53;11.80;;;6.80;;
22628;SDS011;11481;53.694;9.910;2024-01-10T12:54:20;12.10;;;6.68;;
22628;SDS011;11481;53.694;9.910;2024-01-10T12:56:47;10.05;;;5.78;;
22628;SDS011;11481;53.694;9.910;2024-01-10T12:59:14;12.55;;;6.25;;
22628;SDS011;11481;53.694;9.910;2024-01-10T13:01:42;11.50;;;6.13;;
22628;SDS011;11481;53.694;9.910;2024-01-10T13:04:09;16.45;;;6.97;;
22628;SDS011;11481;53.694;9.910;2024-01-10T13:06:38;13.77;;;6.80;;
22628;SDS011;11481;53.694;9.910;2024-01-10T13:09:07;12.13;;;6.75;;
22628;SDS011;11481;53.694;9.910;2024-01-10T13:11:35;13.80;;;6.95;;
22628;SDS011;11481;53.694;9.910;2024-01-10T13:14:04;13.77;;;7.05;;
22628;SDS011;11481;53.694;9.910;2024-01-10T13:16:31;14.85;;;7.65;;
22628;SDS011;11481;53.694;9.910;2024-01-10T13:19:14;11.95;;;6.22;;
22628;SDS011;11481;53.694;9.910;2024-01-10T13:21:41;13.60;;;7.22;;
22628;SDS011;11481;53.694;9.910;2024-01-10T13:24:09;13.98;;;6.93;;
22628;SDS011;11481;53.694;9.910;2024-01-10T13:26:35;16.30;;;7.78;;
22628;SDS011;11481;53.694;9.910;2024-01-10T13:29:02;10.93;;;6.78;;
22628;SDS011;11481;53.694;9.910;2024-01-10T13:31:29;15.45;;;7.07;;
22628;SDS011;11481;53.694;9.910;2024-01-10T13:33:56;15.68;;;8.57;;
22628;SDS011;11481;53.694;9.910;2024-01-10T13:36:23;19.15;;;9.30;;
22628;SDS011;11481;53.694;9.910;2024-01-10T13:38:50;13.90;;;7.65;;
22628;SDS011;11481;53.694;9.910;2024-01-10T13:41:19;14.45;;;7.25;;
22628;SDS011;11481;53.694;9.910;2024-01-10T13:43:46;17.42;;;8.10;;
22628;SDS011;11481;53.694;9.910;2024-01-10T13:46:12;14.40;;;8.15;;
22628;SDS011;11481;53.694;9.910;2024-01-10T13:48:39;14.70;;;7.85;;
22628;SDS011;11481;53.694;9.910;2024-01-10T13:51:07;12.55;;;7.40;;
22628;SDS011;11481;53.694;9.910;2024-01-10T13:53:36;15.73;;;7.97;;
22628;SDS011;11481;53.694;9.910;2024-01-10T13:56:03;14.73;;;7.57;;
22628;SDS011;11481;53.694;9.910;2024-01-10T13:58:30;15.05;;;8.27;;
22628;SDS011;11481;53.694;9.910;2024-01-10T14:00:58;14.60;;;8.27;;
22628;SDS011;11481;53.694;9.910;2024-01-10T14:03:26;13.80;;;8.02;;
22628;SDS011;11481;53.694;9.910;2024-01-10T14:05:58;14.43;;;7.35;;
22628;SDS011;11481;53.694;9.910;2024-01-10T14:08:25;13.48;;;8.05;;
22628;SDS011;11481;53.694;9.910;2024-01-10T14:10:52;15.20;;;8.13;;
22628;SDS011;11481;53.694;9.910;2024-01-10T14:13:20;17.77;;;9.18;;
22628;SDS011;11481;53.694;9.910;2024-01-10T14:15:49;15.63;;;8.38;;
22628;SDS011;11481;53.694;9.910;2024-01-10T14:18:16;16.70;;;8.68;;
22628;SDS011;11481;53.694;9.910;2024-01-10T14:20:45;15.10;;;8.90;;
22628;SDS011;11481;53.694;9.910;2024-01-10T14:23:11;17.52;;;9.05;;
22628;SDS011;11481;53.694;9.910;2024-01-10T14:25:38;14.38;;;8.55;;
22628;SDS011;11481;53.694;9.910;2024-01-10T14:28:05;16.30;;;9.65;;
22628;SDS011;11481;53.694;9.910;2024-01-10T14:30:32;16.42;;;9.63;;
22628;SDS011;11481;53.694;9.910;2024-01-10T14:33:01;17.20;;;8.27;;
22628;SDS011;11481;53.694;9.910;2024-01-10T14:35:29;13.20;;;8.57;;
22628;SDS011;11481;53.694;9.910;2024-01-10T14:37:56;14.30;;;8.55;;
22628;SDS011;11481;53.694;9.910;2024-01-10T14:40:23;14.02;;;8.43;;
22628;SDS011;11481;53.694;9.910;2024-01-10T14:42:50;17.90;;;9.63;;
22628;SDS011;11481;53.694;9.910;2024-01-10T14:45:17;18.35;;;10.75;;
22628;SDS011;11481;53.694;9.910;2024-01-10T14:47:44;18.30;;;10.88;;
22628;SDS011;11481;53.694;9.910;2024-01-10T14:50:11;19.85;;;10.55;;
22628;SDS011;11481;53.694;9.910;2024-01-10T14:52:40;17.75;;;9.88;;
22628;SDS011;11481;53.694;9.910;2024-01-10T14:55:07;17.83;;;10.13;;
22628;SDS011;11481;53.694;9.910;2024-01-10T14:57:34;18.65;;;10.50;;
22628;SDS011;11481;53.694;9.910;2024-01-10T15:00:01;19.25;;;10.55;;
22628;SDS011;11481;53.694;9.910;2024-01-10T15:02:29;22.13;;;11.32;;
22628;SDS011;11481;53.694;9.910;2024-01-10T15:04:56;20.65;;;11.30;;